South Yarmouth, Massachusetts
Current Conditions -  °F | °C
As of 5:56 PM on Thursday 23 Oct 2014 (Local Time) from KHYA Reporting Station
Haze Haze  
Wind Chill: 60°   Ceiling: 500
Heat Index: 60°   Visibility: 5mi
Dew Point: 58°   Wind: 13mph
Humidity: 93%   Direction: 30°NNE
Pressure: 29.48"   Gusts: 22mph
Location:  41.67°N, 70.19°W
Report Text: KHYA 232156Z 03011G19KT 5SM BR OVC005 16/14 A2948 RMK AO2 SLP983 T01560144
Loading
Personal Weather Stations






























Interactive Weather Map
Tropical Storm Tracking
New forecast layout! Learn more

10-Day Weather Forecast

Advertisements
Track Severe Weather on mobile